sensor_id;sensor_type;location;lat;lon;timestamp;P1;durP1;ratioP1;P2;durP2;ratioP2
83022;SDS011;72838;51.820;4.260;2023-11-22T00:01:53;51.22;;;13.43;;
83022;SDS011;72838;51.820;4.260;2023-11-22T00:04:19;50.58;;;13.68;;
83022;SDS011;72838;51.820;4.260;2023-11-22T00:06:45;42.10;;;12.57;;
83022;SDS011;72838;51.820;4.260;2023-11-22T00:09:10;43.92;;;12.88;;
83022;SDS011;72838;51.820;4.260;2023-11-22T00:11:35;45.42;;;13.75;;
83022;SDS011;72838;51.820;4.260;2023-11-22T00:14:01;38.88;;;12.88;;
83022;SDS011;72838;51.820;4.260;2023-11-22T00:16:26;41.93;;;13.00;;
83022;SDS011;72838;51.820;4.260;2023-11-22T00:18:52;47.85;;;12.82;;
83022;SDS011;72838;51.820;4.260;2023-11-22T00:21:17;42.25;;;12.07;;
83022;SDS011;72838;51.820;4.260;2023-11-22T00:23:45;42.90;;;13.77;;
83022;SDS011;72838;51.820;4.260;2023-11-22T00:26:11;43.13;;;13.18;;
83022;SDS011;72838;51.820;4.260;2023-11-22T00:28:37;44.38;;;13.50;;
83022;SDS011;72838;51.820;4.260;2023-11-22T00:31:02;49.23;;;13.67;;
83022;SDS011;72838;51.820;4.260;2023-11-22T00:33:27;44.80;;;12.73;;
83022;SDS011;72838;51.820;4.260;2023-11-22T00:35:56;43.50;;;12.00;;
83022;SDS011;72838;51.820;4.260;2023-11-22T00:38:23;48.42;;;14.23;;
83022;SDS011;72838;51.820;4.260;2023-11-22T00:40:49;48.63;;;13.57;;
83022;SDS011;72838;51.820;4.260;2023-11-22T00:43:15;40.10;;;13.25;;
83022;SDS011;72838;51.820;4.260;2023-11-22T00:45:40;48.15;;;13.98;;
83022;SDS011;72838;51.820;4.260;2023-11-22T00:48:06;53.58;;;13.02;;
83022;SDS011;72838;51.820;4.260;2023-11-22T00:50:32;42.90;;;13.18;;
83022;SDS011;72838;51.820;4.260;2023-11-22T00:52:57;43.20;;;13.27;;
83022;SDS011;72838;51.820;4.260;2023-11-22T00:55:23;45.20;;;13.32;;
83022;SDS011;72838;51.820;4.260;2023-11-22T00:57:48;48.13;;;14.70;;
83022;SDS011;72838;51.820;4.260;2023-11-22T01:00:13;43.78;;;13.52;;
83022;SDS011;72838;51.820;4.260;2023-11-22T01:02:40;44.47;;;13.13;;
83022;SDS011;72838;51.820;4.260;2023-11-22T01:05:08;46.50;;;13.40;;
83022;SDS011;72838;51.820;4.260;2023-11-22T01:07:38;51.30;;;14.93;;
83022;SDS011;72838;51.820;4.260;2023-11-22T01:10:03;51.22;;;13.75;;
83022;SDS011;72838;51.820;4.260;2023-11-22T01:12:30;44.25;;;13.60;;
83022;SDS011;72838;51.820;4.260;2023-11-22T01:14:56;46.80;;;12.70;;
83022;SDS011;72838;51.820;4.260;2023-11-22T01:17:21;51.25;;;14.10;;
83022;SDS011;72838;51.820;4.260;2023-11-22T01:19:46;51.08;;;14.60;;
83022;SDS011;72838;51.820;4.260;2023-11-22T01:22:12;46.63;;;15.07;;
83022;SDS011;72838;51.820;4.260;2023-11-22T01:24:37;52.83;;;14.50;;
83022;SDS011;72838;51.820;4.260;2023-11-22T01:27:03;46.72;;;14.38;;
83022;SDS011;72838;51.820;4.260;2023-11-22T01:29:29;52.35;;;13.82;;
83022;SDS011;72838;51.820;4.260;2023-11-22T01:31:54;64.13;;;15.35;;
83022;SDS011;72838;51.820;4.260;2023-11-22T01:34:20;55.97;;;15.63;;
83022;SDS011;72838;51.820;4.260;2023-11-22T01:36:46;53.95;;;14.68;;
83022;SDS011;72838;51.820;4.260;2023-11-22T01:39:15;49.90;;;14.02;;
83022;SDS011;72838;51.820;4.260;2023-11-22T01:41:40;51.08;;;14.48;;
83022;SDS011;72838;51.820;4.260;2023-11-22T01:44:09;50.53;;;13.35;;
83022;SDS011;72838;51.820;4.260;2023-11-22T01:46:34;50.88;;;13.98;;
83022;SDS011;72838;51.820;4.260;2023-11-22T01:49:00;48.33;;;13.68;;
83022;SDS011;72838;51.820;4.260;2023-11-22T01:51:26;71.35;;;16.70;;
83022;SDS011;72838;51.820;4.260;2023-11-22T01:53:53;55.90;;;14.57;;
83022;SDS011;72838;51.820;4.260;2023-11-22T01:56:21;50.10;;;14.93;;
83022;SDS011;72838;51.820;4.260;2023-11-22T01:58:51;49.70;;;14.32;;
83022;SDS011;72838;51.820;4.260;2023-11-22T02:01:19;55.22;;;15.05;;
83022;SDS011;72838;51.820;4.260;2023-11-22T02:03:45;57.67;;;14.23;;
83022;SDS011;72838;51.820;4.260;2023-11-22T02:06:11;51.03;;;14.45;;
83022;SDS011;72838;51.820;4.260;2023-11-22T02:08:36;51.15;;;15.05;;
83022;SDS011;72838;51.820;4.260;2023-11-22T02:11:02;55.42;;;15.25;;
83022;SDS011;72838;51.820;4.260;2023-11-22T02:13:29;50.28;;;14.07;;
83022;SDS011;72838;51.820;4.260;2023-11-22T02:15:55;56.67;;;14.95;;
83022;SDS011;72838;51.820;4.260;2023-11-22T02:18:28;54.40;;;15.02;;
83022;SDS011;72838;51.820;4.260;2023-11-22T02:20:55;49.50;;;14.32;;
83022;SDS011;72838;51.820;4.260;2023-11-22T02:23:20;51.65;;;14.63;;
83022;SDS011;72838;51.820;4.260;2023-11-22T02:25:46;55.35;;;15.20;;
83022;SDS011;72838;51.820;4.260;2023-11-22T02:28:12;57.75;;;15.18;;
83022;SDS011;72838;51.820;4.260;2023-11-22T02:30:38;58.17;;;16.38;;
83022;SDS011;72838;51.820;4.260;2023-11-22T02:33:03;51.53;;;15.35;;
83022;SDS011;72838;51.820;4.260;2023-11-22T02:35:32;54.28;;;14.93;;
83022;SDS011;72838;51.820;4.260;2023-11-22T02:37:58;50.15;;;14.43;;
83022;SDS011;72838;51.820;4.260;2023-11-22T02:40:24;56.92;;;15.32;;
83022;SDS011;72838;51.820;4.260;2023-11-22T02:42:50;56.38;;;14.75;;
83022;SDS011;72838;51.820;4.260;2023-11-22T02:45:18;52.78;;;14.30;;
83022;SDS011;72838;51.820;4.260;2023-11-22T02:47:45;51.80;;;14.70;;
83022;SDS011;72838;51.820;4.260;2023-11-22T02:50:14;56.35;;;14.70;;
83022;SDS011;72838;51.820;4.260;2023-11-22T02:52:40;50.47;;;14.50;;
83022;SDS011;72838;51.820;4.260;2023-11-22T02:55:06;55.88;;;14.50;;
83022;SDS011;72838;51.820;4.260;2023-11-22T02:57:39;58.15;;;15.45;;
83022;SDS011;72838;51.820;4.260;2023-11-22T03:00:05;52.58;;;14.68;;
83022;SDS011;72838;51.820;4.260;2023-11-22T03:02:35;53.42;;;15.15;;
83022;SDS011;72838;51.820;4.260;2023-11-22T03:05:02;48.78;;;14.35;;
83022;SDS011;72838;51.820;4.260;2023-11-22T03:07:29;50.08;;;14.23;;
83022;SDS011;72838;51.820;4.260;2023-11-22T03:09:55;55.28;;;14.35;;
83022;SDS011;72838;51.820;4.260;2023-11-22T03:12:20;54.22;;;13.93;;
83022;SDS011;72838;51.820;4.260;2023-11-22T03:14:46;53.35;;;14.80;;
83022;SDS011;72838;51.820;4.260;2023-11-22T03:17:14;52.97;;;15.10;;
83022;SDS011;72838;51.820;4.260;2023-11-22T03:19:40;50.63;;;14.05;;
83022;SDS011;72838;51.820;4.260;2023-11-22T03:22:06;51.85;;;14.55;;
83022;SDS011;72838;51.820;4.260;2023-11-22T03:24:31;46.88;;;13.30;;
83022;SDS011;72838;51.820;4.260;2023-11-22T03:27:00;47.50;;;14.20;;
83022;SDS011;72838;51.820;4.260;2023-11-22T03:29:26;53.25;;;14.80;;
83022;SDS011;72838;51.820;4.260;2023-11-22T03:31:52;53.38;;;14.10;;
83022;SDS011;72838;51.820;4.260;2023-11-22T03:34:18;50.15;;;14.60;;
83022;SDS011;72838;51.820;4.260;2023-11-22T03:36:44;52.75;;;15.18;;
83022;SDS011;72838;51.820;4.260;2023-11-22T03:39:13;44.55;;;13.35;;
83022;SDS011;72838;51.820;4.260;2023-11-22T03:41:40;53.47;;;15.52;;
83022;SDS011;72838;51.820;4.260;2023-11-22T03:44:07;46.92;;;13.32;;
83022;SDS011;72838;51.820;4.260;2023-11-22T03:46:34;51.97;;;14.15;;
83022;SDS011;72838;51.820;4.260;2023-11-22T03:49:05;53.55;;;15.00;;
83022;SDS011;72838;51.820;4.260;2023-11-22T03:51:34;54.90;;;15.55;;
83022;SDS011;72838;51.820;4.260;2023-11-22T03:54:01;49.65;;;14.02;;
83022;SDS011;72838;51.820;4.260;2023-11-22T03:56:27;50.72;;;14.35;;
83022;SDS011;72838;51.820;4.260;2023-11-22T03:58:53;44.03;;;13.38;;
83022;SDS011;72838;51.820;4.260;2023-11-22T04:01:18;49.65;;;13.80;;
83022;SDS011;72838;51.820;4.260;2023-11-22T04:03:45;47.10;;;15.02;;
83022;SDS011;72838;51.820;4.260;2023-11-22T04:06:14;53.13;;;14.52;;
83022;SDS011;72838;51.820;4.260;2023-11-22T04:08:44;52.20;;;15.10;;
83022;SDS011;72838;51.820;4.260;2023-11-22T04:11:10;43.90;;;14.50;;
83022;SDS011;72838;51.820;4.260;2023-11-22T04:13:37;52.58;;;15.05;;
83022;SDS011;72838;51.820;4.260;2023-11-22T04:16:02;49.53;;;13.50;;
83022;SDS011;72838;51.820;4.260;2023-11-22T04:18:28;50.67;;;14.50;;
83022;SDS011;72838;51.820;4.260;2023-11-22T04:20:53;48.55;;;14.00;;
83022;SDS011;72838;51.820;4.260;2023-11-22T04:23:20;52.08;;;14.43;;
83022;SDS011;72838;51.820;4.260;2023-11-22T04:25:46;50.17;;;14.02;;
83022;SDS011;72838;51.820;4.260;2023-11-22T04:28:14;51.92;;;14.90;;
83022;SDS011;72838;51.820;4.260;2023-11-22T04:30:40;53.92;;;15.25;;
83022;SDS011;72838;51.820;4.260;2023-11-22T04:33:05;55.65;;;14.27;;
83022;SDS011;72838;51.820;4.260;2023-11-22T04:35:31;52.97;;;15.27;;
83022;SDS011;72838;51.820;4.260;2023-11-22T04:38:01;52.47;;;13.82;;
83022;SDS011;72838;51.820;4.260;2023-11-22T04:40:26;46.42;;;13.82;;
83022;SDS011;72838;51.820;4.260;2023-11-22T04:42:52;62.92;;;15.38;;
83022;SDS011;72838;51.820;4.260;2023-11-22T04:45:17;57.40;;;14.27;;
83022;SDS011;72838;51.820;4.260;2023-11-22T04:47:45;53.35;;;13.88;;
83022;SDS011;72838;51.820;4.260;2023-11-22T04:50:10;55.42;;;14.60;;
83022;SDS011;72838;51.820;4.260;2023-11-22T04:52:35;48.63;;;13.52;;
83022;SDS011;72838;51.820;4.260;2023-11-22T04:55:01;57.03;;;13.82;;
83022;SDS011;72838;51.820;4.260;2023-11-22T04:57:26;49.95;;;13.68;;
83022;SDS011;72838;51.820;4.260;2023-11-22T04:59:58;52.45;;;15.50;;
83022;SDS011;72838;51.820;4.260;2023-11-22T05:02:25;50.95;;;14.70;;
83022;SDS011;72838;51.820;4.260;2023-11-22T05:04:53;52.47;;;14.95;;
83022;SDS011;72838;51.820;4.260;2023-11-22T05:07:19;53.28;;;14.27;;
83022;SDS011;72838;51.820;4.260;2023-11-22T05:09:44;53.07;;;14.80;;
83022;SDS011;72838;51.820;4.260;2023-11-22T05:12:10;53.78;;;13.73;;
83022;SDS011;72838;51.820;4.260;2023-11-22T05:14:36;53.10;;;13.85;;
83022;SDS011;72838;51.820;4.260;2023-11-22T05:17:02;53.10;;;15.50;;
83022;SDS011;72838;51.820;4.260;2023-11-22T05:19:27;52.17;;;14.15;;
83022;SDS011;72838;51.820;4.260;2023-11-22T05:21:53;54.38;;;15.30;;
83022;SDS011;72838;51.820;4.260;2023-11-22T05:24:18;54.90;;;15.85;;
83022;SDS011;72838;51.820;4.260;2023-11-22T05:26:44;55.85;;;15.15;;
83022;SDS011;72838;51.820;4.260;2023-11-22T05:29:09;54.80;;;14.88;;
83022;SDS011;72838;51.820;4.260;2023-11-22T05:31:35;60.20;;;17.20;;
83022;SDS011;72838;51.820;4.260;2023-11-22T05:34:03;64.43;;;16.30;;
83022;SDS011;72838;51.820;4.260;2023-11-22T05:36:28;63.03;;;16.45;;
83022;SDS011;72838;51.820;4.260;2023-11-22T05:38:54;63.70;;;17.42;;
83022;SDS011;72838;51.820;4.260;2023-11-22T05:41:20;60.22;;;17.25;;
83022;SDS011;72838;51.820;4.260;2023-11-22T05:43:45;66.82;;;17.63;;
83022;SDS011;72838;51.820;4.260;2023-11-22T05:46:11;72.22;;;18.70;;
83022;SDS011;72838;51.820;4.260;2023-11-22T05:48:37;74.13;;;16.60;;
83022;SDS011;72838;51.820;4.260;2023-11-22T05:51:06;75.00;;;17.30;;
83022;SDS011;72838;51.820;4.260;2023-11-22T05:53:33;69.93;;;19.60;;
83022;SDS011;72838;51.820;4.260;2023-11-22T05:55:58;66.90;;;16.98;;
83022;SDS011;72838;51.820;4.260;2023-11-22T05:58:24;68.35;;;18.15;;
83022;SDS011;72838;51.820;4.260;2023-11-22T06:00:50;68.05;;;19.17;;
83022;SDS011;72838;51.820;4.260;2023-11-22T06:03:15;63.78;;;16.67;;
83022;SDS011;72838;51.820;4.260;2023-11-22T06:05:40;68.95;;;18.33;;
83022;SDS011;72838;51.820;4.260;2023-11-22T06:08:06;70.07;;;18.45;;
83022;SDS011;72838;51.820;4.260;2023-11-22T06:10:31;59.00;;;17.58;;
83022;SDS011;72838;51.820;4.260;2023-11-22T06:12:57;60.00;;;16.60;;
83022;SDS011;72838;51.820;4.260;2023-11-22T06:15:23;68.03;;;17.48;;
83022;SDS011;72838;51.820;4.260;2023-11-22T06:17:48;73.05;;;19.50;;
83022;SDS011;72838;51.820;4.260;2023-11-22T06:20:14;70.43;;;17.92;;
83022;SDS011;72838;51.820;4.260;2023-11-22T06:22:41;64.95;;;17.30;;
83022;SDS011;72838;51.820;4.260;2023-11-22T06:25:10;72.80;;;17.90;;
83022;SDS011;72838;51.820;4.260;2023-11-22T06:27:38;62.05;;;17.02;;
83022;SDS011;72838;51.820;4.260;2023-11-22T06:30:04;71.50;;;18.42;;
83022;SDS011;72838;51.820;4.260;2023-11-22T06:32:31;71.85;;;16.83;;
83022;SDS011;72838;51.820;4.260;2023-11-22T06:34:57;73.35;;;18.45;;
83022;SDS011;72838;51.820;4.260;2023-11-22T06:37:24;75.72;;;18.42;;
83022;SDS011;72838;51.820;4.260;2023-11-22T06:39:49;78.80;;;19.57;;
83022;SDS011;72838;51.820;4.260;2023-11-22T06:42:15;69.78;;;19.08;;
83022;SDS011;72838;51.820;4.260;2023-11-22T06:44:41;70.65;;;18.70;;
83022;SDS011;72838;51.820;4.260;2023-11-22T06:47:07;73.60;;;19.67;;
83022;SDS011;72838;51.820;4.260;2023-11-22T06:49:32;75.90;;;19.52;;
83022;SDS011;72838;51.820;4.260;2023-11-22T06:51:58;73.45;;;18.95;;
83022;SDS011;72838;51.820;4.260;2023-11-22T06:54:23;71.72;;;19.15;;
83022;SDS011;72838;51.820;4.260;2023-11-22T06:56:48;72.47;;;18.63;;
83022;SDS011;72838;51.820;4.260;2023-11-22T06:59:16;71.78;;;18.92;;
83022;SDS011;72838;51.820;4.260;2023-11-22T07:01:41;72.90;;;18.30;;
83022;SDS011;72838;51.820;4.260;2023-11-22T07:04:07;81.35;;;21.80;;
83022;SDS011;72838;51.820;4.260;2023-11-22T07:06:32;71.70;;;19.50;;
83022;SDS011;72838;51.820;4.260;2023-11-22T07:08:58;81.13;;;20.98;;
83022;SDS011;72838;51.820;4.260;2023-11-22T07:11:24;72.10;;;19.35;;
83022;SDS011;72838;51.820;4.260;2023-11-22T07:13:51;77.65;;;20.63;;
83022;SDS011;72838;51.820;4.260;2023-11-22T07:16:17;71.47;;;19.30;;
83022;SDS011;72838;51.820;4.260;2023-11-22T07:18:43;86.82;;;21.20;;
83022;SDS011;72838;51.820;4.260;2023-11-22T07:21:09;78.75;;;20.73;;
83022;SDS011;72838;51.820;4.260;2023-11-22T07:23:34;75.88;;;19.00;;
83022;SDS011;72838;51.820;4.260;2023-11-22T07:26:00;83.45;;;20.48;;
83022;SDS011;72838;51.820;4.260;2023-11-22T07:28:25;79.45;;;20.73;;
83022;SDS011;72838;51.820;4.260;2023-11-22T07:30:51;84.90;;;20.52;;
83022;SDS011;72838;51.820;4.260;2023-11-22T07:33:17;70.82;;;19.85;;
83022;SDS011;72838;51.820;4.260;2023-11-22T07:35:45;71.72;;;19.48;;
83022;SDS011;72838;51.820;4.260;2023-11-22T07:38:19;73.43;;;20.40;;
83022;SDS011;72838;51.820;4.260;2023-11-22T07:40:46;82.05;;;21.17;;
83022;SDS011;72838;51.820;4.260;2023-11-22T07:43:11;78.38;;;19.75;;
83022;SDS011;72838;51.820;4.260;2023-11-22T07:45:36;74.93;;;19.80;;
83022;SDS011;72838;51.820;4.260;2023-11-22T07:48:03;75.20;;;19.95;;
83022;SDS011;72838;51.820;4.260;2023-11-22T07:50:29;79.90;;;20.58;;
83022;SDS011;72838;51.820;4.260;2023-11-22T07:52:54;83.57;;;20.27;;
83022;SDS011;72838;51.820;4.260;2023-11-22T07:55:20;73.10;;;20.33;;
83022;SDS011;72838;51.820;4.260;2023-11-22T07:57:49;74.22;;;19.95;;
83022;SDS011;72838;51.820;4.260;2023-11-22T08:00:16;81.32;;;20.27;;
83022;SDS011;72838;51.820;4.260;2023-11-22T08:02:44;76.03;;;20.75;;
83022;SDS011;72838;51.820;4.260;2023-11-22T08:05:12;75.35;;;18.83;;
83022;SDS011;72838;51.820;4.260;2023-11-22T08:07:40;82.28;;;20.73;;
83022;SDS011;72838;51.820;4.260;2023-11-22T08:10:09;87.72;;;20.67;;
83022;SDS011;72838;51.820;4.260;2023-11-22T08:12:42;88.18;;;19.88;;
83022;SDS011;72838;51.820;4.260;2023-11-22T08:15:13;85.50;;;21.80;;
83022;SDS011;72838;51.820;4.260;2023-11-22T08:17:42;82.68;;;20.10;;
83022;SDS011;72838;51.820;4.260;2023-11-22T08:20:13;77.47;;;21.30;;
83022;SDS011;72838;51.820;4.260;2023-11-22T08:22:42;87.00;;;20.05;;
83022;SDS011;72838;51.820;4.260;2023-11-22T08:25:10;83.43;;;20.45;;
83022;SDS011;72838;51.820;4.260;2023-11-22T08:27:40;77.13;;;20.48;;
83022;SDS011;72838;51.820;4.260;2023-11-22T08:30:08;83.68;;;21.20;;
83022;SDS011;72838;51.820;4.260;2023-11-22T08:32:38;82.15;;;20.60;;
83022;SDS011;72838;51.820;4.260;2023-11-22T08:35:05;83.28;;;22.63;;
83022;SDS011;72838;51.820;4.260;2023-11-22T08:37:33;86.53;;;22.88;;
83022;SDS011;72838;51.820;4.260;2023-11-22T08:40:00;84.55;;;22.73;;
83022;SDS011;72838;51.820;4.260;2023-11-22T08:42:26;93.97;;;25.48;;
83022;SDS011;72838;51.820;4.260;2023-11-22T08:44:51;87.25;;;22.80;;
83022;SDS011;72838;51.820;4.260;2023-11-22T08:47:16;84.50;;;23.88;;
83022;SDS011;72838;51.820;4.260;2023-11-22T08:49:43;84.95;;;23.92;;
83022;SDS011;72838;51.820;4.260;2023-11-22T08:52:13;78.75;;;21.13;;
83022;SDS011;72838;51.820;4.260;2023-11-22T08:54:38;79.07;;;20.90;;
83022;SDS011;72838;51.820;4.260;2023-11-22T08:57:03;78.82;;;19.75;;
83022;SDS011;72838;51.820;4.260;2023-11-22T08:59:31;69.82;;;19.85;;
83022;SDS011;72838;51.820;4.260;2023-11-22T09:01:57;70.97;;;19.70;;
83022;SDS011;72838;51.820;4.260;2023-11-22T09:04:23;82.68;;;19.77;;
83022;SDS011;72838;51.820;4.260;2023-11-22T09:06:51;85.72;;;20.85;;
83022;SDS011;72838;51.820;4.260;2023-11-22T09:09:16;77.95;;;19.48;;
83022;SDS011;72838;51.820;4.260;2023-11-22T09:11:48;78.68;;;19.67;;
83022;SDS011;72838;51.820;4.260;2023-11-22T09:14:16;81.07;;;21.85;;
83022;SDS011;72838;51.820;4.260;2023-11-22T09:16:41;83.28;;;21.88;;
83022;SDS011;72838;51.820;4.260;2023-11-22T09:19:07;83.45;;;20.77;;
83022;SDS011;72838;51.820;4.260;2023-11-22T09:21:32;80.20;;;21.98;;
83022;SDS011;72838;51.820;4.260;2023-11-22T09:23:58;79.47;;;20.27;;
83022;SDS011;72838;51.820;4.260;2023-11-22T09:26:24;82.65;;;22.23;;
83022;SDS011;72838;51.820;4.260;2023-11-22T09:28:49;73.28;;;20.40;;
83022;SDS011;72838;51.820;4.260;2023-11-22T09:31:17;75.38;;;21.23;;
83022;SDS011;72838;51.820;4.260;2023-11-22T09:33:45;74.00;;;21.13;;
83022;SDS011;72838;51.820;4.260;2023-11-22T09:36:12;77.28;;;21.08;;
83022;SDS011;72838;51.820;4.260;2023-11-22T09:38:38;88.72;;;22.05;;
83022;SDS011;72838;51.820;4.260;2023-11-22T09:41:04;81.32;;;21.02;;
83022;SDS011;72838;51.820;4.260;2023-11-22T09:43:30;79.95;;;21.55;;
83022;SDS011;72838;51.820;4.260;2023-11-22T09:45:58;75.95;;;20.33;;
83022;SDS011;72838;51.820;4.260;2023-11-22T09:48:26;78.65;;;21.63;;
83022;SDS011;72838;51.820;4.260;2023-11-22T09:56:10;80.03;;;21.45;;
83022;SDS011;72838;51.820;4.260;2023-11-22T09:58:39;78.15;;;21.08;;
83022;SDS011;72838;51.820;4.260;2023-11-22T10:01:08;89.03;;;22.52;;
83022;SDS011;72838;51.820;4.260;2023-11-22T10:03:39;88.25;;;21.45;;
83022;SDS011;72838;51.820;4.260;2023-11-22T10:06:08;93.72;;;22.92;;
83022;SDS011;72838;51.820;4.260;2023-11-22T10:08:33;77.55;;;20.75;;
83022;SDS011;72838;51.820;4.260;2023-11-22T10:10:59;90.00;;;21.27;;
83022;SDS011;72838;51.820;4.260;2023-11-22T10:13:25;92.57;;;22.88;;
83022;SDS011;72838;51.820;4.260;2023-11-22T10:15:51;84.40;;;22.30;;
83022;SDS011;72838;51.820;4.260;2023-11-22T10:18:20;84.72;;;22.08;;
83022;SDS011;72838;51.820;4.260;2023-11-22T10:20:47;87.45;;;22.88;;
83022;SDS011;72838;51.820;4.260;2023-11-22T10:23:17;86.25;;;23.58;;
83022;SDS011;72838;51.820;4.260;2023-11-22T10:28:17;78.15;;;20.70;;
83022;SDS011;72838;51.820;4.260;2023-11-22T10:30:43;81.55;;;22.15;;
83022;SDS011;72838;51.820;4.260;2023-11-22T10:33:11;73.20;;;19.67;;
83022;SDS011;72838;51.820;4.260;2023-11-22T10:35:42;70.32;;;20.75;;
83022;SDS011;72838;51.820;4.260;2023-11-22T10:38:09;65.72;;;18.23;;
83022;SDS011;72838;51.820;4.260;2023-11-22T10:40:38;77.97;;;18.58;;
83022;SDS011;72838;51.820;4.260;2023-11-22T10:43:05;69.25;;;19.42;;
83022;SDS011;72838;51.820;4.260;2023-11-22T10:45:33;73.55;;;20.13;;
83022;SDS011;72838;51.820;4.260;2023-11-22T10:48:08;75.97;;;19.95;;
83022;SDS011;72838;51.820;4.260;2023-11-22T10:50:36;72.43;;;19.00;;
83022;SDS011;72838;51.820;4.260;2023-11-22T10:53:02;67.05;;;18.42;;
83022;SDS011;72838;51.820;4.260;2023-11-22T10:58:06;70.68;;;19.40;;
83022;SDS011;72838;51.820;4.260;2023-11-22T11:00:34;70.70;;;19.38;;
83022;SDS011;72838;51.820;4.260;2023-11-22T11:03:08;69.93;;;20.00;;
83022;SDS011;72838;51.820;4.260;2023-11-22T11:05:40;73.45;;;19.98;;
83022;SDS011;72838;51.820;4.260;2023-11-22T11:08:13;78.95;;;20.52;;
83022;SDS011;72838;51.820;4.260;2023-11-22T11:10:42;73.82;;;20.90;;
83022;SDS011;72838;51.820;4.260;2023-11-22T11:13:09;62.78;;;19.60;;
83022;SDS011;72838;51.820;4.260;2023-11-22T11:15:35;77.47;;;20.75;;
83022;SDS011;72838;51.820;4.260;2023-11-22T11:18:03;66.93;;;19.30;;
83022;SDS011;72838;51.820;4.260;2023-11-22T11:20:43;72.65;;;20.15;;
83022;SDS011;72838;51.820;4.260;2023-11-22T11:23:20;79.65;;;22.10;;
83022;SDS011;72838;51.820;4.260;2023-11-22T11:25:50;74.22;;;20.30;;
83022;SDS011;72838;51.820;4.260;2023-11-22T11:28:19;70.40;;;20.30;;
83022;SDS011;72838;51.820;4.260;2023-11-22T11:30:49;73.35;;;20.77;;
83022;SDS011;72838;51.820;4.260;2023-11-22T11:33:18;79.28;;;21.08;;
83022;SDS011;72838;51.820;4.260;2023-11-22T11:35:51;74.00;;;21.27;;
83022;SDS011;72838;51.820;4.260;2023-11-22T11:38:20;74.25;;;19.88;;
83022;SDS011;72838;51.820;4.260;2023-11-22T11:40:46;83.78;;;21.27;;
83022;SDS011;72838;51.820;4.260;2023-11-22T11:43:13;72.70;;;20.08;;
83022;SDS011;72838;51.820;4.260;2023-11-22T11:45:40;71.90;;;20.13;;
83022;SDS011;72838;51.820;4.260;2023-11-22T11:48:12;72.35;;;21.42;;
83022;SDS011;72838;51.820;4.260;2023-11-22T11:50:39;73.78;;;21.73;;
83022;SDS011;72838;51.820;4.260;2023-11-22T11:53:04;72.93;;;20.75;;
83022;SDS011;72838;51.820;4.260;2023-11-22T11:55:30;78.97;;;21.43;;
83022;SDS011;72838;51.820;4.260;2023-11-22T11:57:55;70.75;;;21.52;;
83022;SDS011;72838;51.820;4.260;2023-11-22T12:00:21;73.65;;;20.15;;
83022;SDS011;72838;51.820;4.260;2023-11-22T12:02:50;77.70;;;21.55;;
83022;SDS011;72838;51.820;4.260;2023-11-22T12:05:18;73.07;;;20.90;;
83022;SDS011;72838;51.820;4.260;2023-11-22T12:07:45;63.70;;;19.27;;
83022;SDS011;72838;51.820;4.260;2023-11-22T12:10:10;71.07;;;19.85;;
83022;SDS011;72838;51.820;4.260;2023-11-22T12:12:36;64.47;;;19.85;;
83022;SDS011;72838;51.820;4.260;2023-11-22T12:15:01;64.25;;;18.48;;
83022;SDS011;72838;51.820;4.260;2023-11-22T12:17:30;55.95;;;16.25;;
83022;SDS011;72838;51.820;4.260;2023-11-22T12:20:09;55.60;;;17.20;;
83022;SDS011;72838;51.820;4.260;2023-11-22T12:22:36;54.25;;;17.15;;
83022;SDS011;72838;51.820;4.260;2023-11-22T12:25:02;58.10;;;17.85;;
83022;SDS011;72838;51.820;4.260;2023-11-22T12:27:27;61.33;;;17.75;;
83022;SDS011;72838;51.820;4.260;2023-11-22T12:29:53;58.78;;;17.38;;
83022;SDS011;72838;51.820;4.260;2023-11-22T12:32:23;67.25;;;19.75;;
83022;SDS011;72838;51.820;4.260;2023-11-22T12:34:51;65.75;;;19.67;;
83022;SDS011;72838;51.820;4.260;2023-11-22T12:37:21;67.55;;;20.02;;
83022;SDS011;72838;51.820;4.260;2023-11-22T12:39:50;66.15;;;21.55;;
83022;SDS011;72838;51.820;4.260;2023-11-22T12:42:17;66.55;;;20.80;;
83022;SDS011;72838;51.820;4.260;2023-11-22T12:44:46;57.95;;;20.70;;
83022;SDS011;72838;51.820;4.260;2023-11-22T12:47:38;62.15;;;20.77;;
83022;SDS011;72838;51.820;4.260;2023-11-22T12:50:03;65.65;;;19.17;;
83022;SDS011;72838;51.820;4.260;2023-11-22T12:52:33;60.70;;;18.52;;
83022;SDS011;72838;51.820;4.260;2023-11-22T12:54:59;67.03;;;19.10;;
83022;SDS011;72838;51.820;4.260;2023-11-22T12:57:24;57.67;;;17.70;;
83022;SDS011;72838;51.820;4.260;2023-11-22T12:59:50;65.93;;;18.50;;
83022;SDS011;72838;51.820;4.260;2023-11-22T13:02:16;56.67;;;16.83;;
83022;SDS011;72838;51.820;4.260;2023-11-22T13:04:42;55.42;;;17.83;;
83022;SDS011;72838;51.820;4.260;2023-11-22T13:07:09;58.20;;;18.90;;
83022;SDS011;72838;51.820;4.260;2023-11-22T13:09:37;61.92;;;18.27;;
83022;SDS011;72838;51.820;4.260;2023-11-22T13:12:03;63.80;;;17.15;;
83022;SDS011;72838;51.820;4.260;2023-11-22T13:14:29;64.05;;;18.05;;
83022;SDS011;72838;51.820;4.260;2023-11-22T13:17:02;69.82;;;19.77;;
83022;SDS011;72838;51.820;4.260;2023-11-22T13:19:29;67.65;;;19.20;;
83022;SDS011;72838;51.820;4.260;2023-11-22T13:21:54;67.80;;;18.93;;
83022;SDS011;72838;51.820;4.260;2023-11-22T13:24:19;73.45;;;20.77;;
83022;SDS011;72838;51.820;4.260;2023-11-22T13:26:48;63.85;;;18.92;;
83022;SDS011;72838;51.820;4.260;2023-11-22T13:29:13;66.33;;;19.67;;
83022;SDS011;72838;51.820;4.260;2023-11-22T13:31:38;73.40;;;22.67;;
83022;SDS011;72838;51.820;4.260;2023-11-22T13:34:04;77.03;;;21.80;;
83022;SDS011;72838;51.820;4.260;2023-11-22T13:36:30;87.32;;;25.17;;
83022;SDS011;72838;51.820;4.260;2023-11-22T13:38:57;83.22;;;25.05;;
83022;SDS011;72838;51.820;4.260;2023-11-22T13:41:26;75.25;;;23.50;;
83022;SDS011;72838;51.820;4.260;2023-11-22T13:43:51;79.20;;;24.08;;
83022;SDS011;72838;51.820;4.260;2023-11-22T13:46:20;72.50;;;21.63;;
83022;SDS011;72838;51.820;4.260;2023-11-22T13:48:45;69.17;;;20.83;;
83022;SDS011;72838;51.820;4.260;2023-11-22T13:51:17;65.05;;;19.52;;
83022;SDS011;72838;51.820;4.260;2023-11-22T13:53:42;61.72;;;18.98;;
83022;SDS011;72838;51.820;4.260;2023-11-22T13:56:14;59.10;;;18.60;;
83022;SDS011;72838;51.820;4.260;2023-11-22T13:58:39;68.10;;;19.42;;
83022;SDS011;72838;51.820;4.260;2023-11-22T14:01:05;66.00;;;20.63;;
83022;SDS011;72838;51.820;4.260;2023-11-22T14:03:34;67.40;;;19.20;;
83022;SDS011;72838;51.820;4.260;2023-11-22T14:06:00;59.47;;;19.10;;
83022;SDS011;72838;51.820;4.260;2023-11-22T14:08:25;61.05;;;17.73;;
83022;SDS011;72838;51.820;4.260;2023-11-22T14:10:51;63.40;;;20.02;;
83022;SDS011;72838;51.820;4.260;2023-11-22T14:13:16;57.00;;;18.27;;
83022;SDS011;72838;51.820;4.260;2023-11-22T14:15:41;67.25;;;19.80;;
83022;SDS011;72838;51.820;4.260;2023-11-22T14:18:07;58.35;;;19.42;;
83022;SDS011;72838;51.820;4.260;2023-11-22T14:20:32;63.85;;;20.42;;
83022;SDS011;72838;51.820;4.260;2023-11-22T14:22:59;68.65;;;19.73;;
83022;SDS011;72838;51.820;4.260;2023-11-22T14:25:25;69.85;;;20.38;;
83022;SDS011;72838;51.820;4.260;2023-11-22T14:27:51;53.08;;;15.30;;
83022;SDS011;72838;51.820;4.260;2023-11-22T14:30:19;67.32;;;19.48;;